Kiruna Airport

ESNQ · Norrbotten, Schweden

METAR-Geschichte ESNQ · Kiruna Airport

Unten siehst du die METARs der letzten paar Tage. Wähle ein Jahr, um ältere METARs ab dem Jahr 2007 zu durchsuchen.

16. Juli 2024

Uhrzeit Code Wetter Temp. Sichtweite Wolkendecke Wind METAR/SPECI
18:20
V
18 °C 10 km+ 9.000 ft Var Var 3 kt METAR ESNQ 161620Z AUTO VRB03KT 9999 OVC090/// 18/14 Q1015
17:50
V
17 °C 10 km+ 9.000 ft 050° 050° 5 kt METAR ESNQ 161550Z AUTO 05005KT 9999 OVC090/// 17/14 Q1015
17:20
V
18 °C 10 km+ 9.400 ft 070° 070° 6 kt METAR ESNQ 161520Z AUTO 07006KT 9999 FEW029/// SCT037/// OVC094/// 18/13 Q1015
16:50
V
19 °C 8 km 3.300 ft 080° 080° 6 kt METAR ESNQ 161450Z AUTO 08006KT 020V120 8000 -DZ BKN033/// 19/13 Q1015 RERA
16:20
V
19 °C 10 km+ 9.000 ft 250° 250° 6 kt METAR ESNQ 161420Z AUTO 25006KT 220V290 9999 -RA SCT031/// OVC090/// 19/12 Q1015
15:50
V
19 °C 10 km+ 9.200 ft 220° 220° 4 kt METAR ESNQ 161350Z AUTO 22004KT 180V260 9999 FEW035/// SCT042/// OVC092/// 19/12 Q1015
15:20
V
19 °C 10 km+ 9.200 ft 220° 220° 7 kt METAR ESNQ 161320Z AUTO 22007KT 9999 OVC092/// 19/12 Q1015
14:50
V
19 °C 10 km+ - 220° 220° 8 kt METAR ESNQ 161250Z AUTO 22008KT 180V250 9999 FEW033/// SCT140/// 19/12 Q1015
14:20
V
19 °C 10 km+ 3.500 ft 220° 220° 4 kt METAR ESNQ 161220Z AUTO 22004KT 190V270 9999 SCT026/// BKN035/// BKN120/// 19/13 Q1015
13:50
V
18 °C 10 km+ 9.800 ft 230° 230° 6 kt METAR ESNQ 161150Z AUTO 23006KT 200V270 9999 FEW021/// BKN098/// BKN120/// 18/13 Q1015
13:20
V
18 °C 10 km+ 10.000 ft 220° 220° 6 kt METAR ESNQ 161120Z AUTO 22006KT 190V250 9999 FEW020/// BKN100/// 18/12 Q1015
12:50
V
17 °C 10 km+ 12.000 ft 230° 230° 3 kt METAR ESNQ 161050Z AUTO 23003KT 190V280 9999 BKN120/// 17/13 Q1015
12:20
V
17 °C 10 km+ - 210° 210° 4 kt METAR ESNQ 161020Z AUTO 21004KT 180V250 9999 FEW092/// SCT140/// 17/13 Q1015
11:50
V
16 °C 10 km+ 9.800 ft 220° 220° 4 kt METAR ESNQ 160950Z AUTO 22004KT 180V240 9999 BKN098/// BKN200/// 16/13 Q1015
11:20
V
16 °C 10 km+ 22.000 ft 240° 240° 4 kt METAR ESNQ 160920Z AUTO 24004KT 200V270 9999 SCT043/// BKN220/// 16/14 Q1015
10:50
V
16 °C 10 km+ 6.600 ft 220° 220° 4 kt METAR ESNQ 160850Z AUTO 22004KT 190V250 9999 FEW032/// BKN066/// 16/14 Q1015
10:20
V
14 °C 10 km+ 6.200 ft 220° 220° 6 kt METAR ESNQ 160820Z AUTO 22006KT 9999 -DZ FEW046/// OVC062/// 14/13 Q1015 REDZ
09:50
V
14 °C 10 km+ 4.300 ft 230° 230° 5 kt METAR ESNQ 160750Z AUTO 23005KT 9999 FEW004/// BKN043/// OVC061/// 14/13 Q1015
09:20
V
14 °C 10 km+ 3.400 ft 220° 220° 3 kt METAR ESNQ 160720Z AUTO 22003KT 9999 VV034 14/13 Q1015
08:50
M
14 °C 10 km+ 2.700 ft 360° 360° 0 kt METAR ESNQ 160650Z AUTO 00000KT 9999 DZ FEW007/// BKN027/// OVC043/// 14/12 Q1015
08:20
M
14 °C 10 km+ 2.700 ft 360° 360° 0 kt METAR ESNQ 160620Z AUTO 00000KT 9999 BKN027/// OVC045/// 14/12 Q1015
07:50
V
14 °C 10 km+ 4.100 ft 060° 060° 2 kt METAR ESNQ 160550Z AUTO 06002KT 9999 OVC041/// 14/12 Q1015
07:20
V
13 °C 10 km+ 4.800 ft Var Var 1 kt METAR ESNQ 160520Z AUTO VRB01KT 9999 OVC048/// 13/11 Q1015
06:50
V
13 °C 10 km+ 5.100 ft 020° 020° 1 kt METAR ESNQ 160450Z AUTO 02001KT 9999 SCT029/// OVC051/// 13/11 Q1015
06:20
V
13 °C 10 km+ 5.300 ft Var Var 1 kt METAR ESNQ 160420Z AUTO VRB01KT 9999 SCT030/// OVC053/// 13/11 Q1015
05:50
V
13 °C 10 km+ 3.200 ft Var Var 2 kt METAR ESNQ 160350Z AUTO VRB02KT 9999 OVC032/// 13/11 Q1015
05:20
V
13 °C 10 km+ 3.400 ft 020° 020° 2 kt METAR ESNQ 160320Z AUTO 02002KT 9999 OVC034/// 13/11 Q1015
04:50
V
12 °C 10 km+ 5.100 ft 320° 320° 1 kt METAR ESNQ 160250Z AUTO 32001KT 9999 SCT036/// OVC051/// 12/11 Q1015
04:20
V
11 °C 10 km+ 5.300 ft 220° 220° 3 kt METAR ESNQ 160220Z AUTO 22003KT 9999 BKN053/// OVC064/// 11/10 Q1015
03:50
V
11 °C 10 km+ 6.800 ft 360° 360° 0 kt METAR ESNQ 160150Z AUTO 00000KT 9999 BKN068/// 11/10 Q1015
03:20
V
10 °C 10 km+ - 240° 240° 3 kt METAR ESNQ 160120Z AUTO 24003KT 9999 FEW041/// SCT066/// 10/10 Q1015
02:50
V
11 °C 10 km+ 3.900 ft Var Var 1 kt METAR ESNQ 160050Z AUTO VRB01KT 9999 OVC039/// 11/10 Q1015
02:20
V
9 °C 10 km+ 3.800 ft 230° 230° 1 kt METAR ESNQ 160020Z AUTO 23001KT 9999 BKN038/// 09/08 Q1015
01:50
V
9 °C 10 km+ 3.800 ft 360° 360° 0 kt METAR ESNQ 152350Z AUTO 00000KT 9999 BKN038/// 09/09 Q1015
01:20
V
9 °C 10 km+ - 270° 270° 2 kt METAR ESNQ 152320Z AUTO 27002KT 9999 FEW039/// 09/09 Q1015
00:50
V
10 °C 10 km+ - 360° 360° 0 kt METAR ESNQ 152250Z AUTO 00000KT 9999 FEW040/// 10/09 Q1015
00:20
V
11 °C 10 km+ 4.100 ft 320° 320° 2 kt METAR ESNQ 152220Z AUTO 32002KT 9999 BKN041/// 11/10 Q1015

15. Juli 2024

Uhrzeit Code Wetter Temp. Sichtweite Wolkendecke Wind METAR/SPECI
23:50
V
11 °C 10 km+ 3.900 ft 230° 230° 2 kt METAR ESNQ 152150Z AUTO 23002KT 9999 OVC039/// 11/10 Q1015
23:20
V
13 °C 10 km+ - 360° 360° 0 kt METAR ESNQ 152120Z AUTO 00000KT 9999 FEW039/// 13/11 Q1015
22:50
V
15 °C 10 km+ - 100° 100° 3 kt METAR ESNQ 152050Z AUTO 10003KT 070V130 9999 SCT040/// 15/11 Q1015
22:20
V
15 °C 10 km+ - Var Var 2 kt METAR ESNQ 152020Z AUTO VRB02KT 9999 NCD 15/11 Q1015
21:50
V
16 °C 10 km+ - 100° 100° 3 kt METAR ESNQ 151950Z AUTO 10003KT 9999 NCD 16/11 Q1015
21:20
V
17 °C 10 km+ - 110° 110° 5 kt METAR ESNQ 151920Z AUTO 11005KT 9999 NCD 17/11 Q1015
20:50
V
17 °C 10 km+ - 120° 120° 7 kt METAR ESNQ 151850Z AUTO 12007KT 9999 NCD 17/10 Q1015
20:20
V
18 °C 10 km+ - 130° 130° 7 kt METAR ESNQ 151820Z AUTO 13007KT 9999 NCD 18/10 Q1014
19:50
V
18 °C 10 km+ - 120° 120° 8 kt METAR ESNQ 151750Z AUTO 12008KT 9999 NCD 18/11 Q1014
19:20
V
18 °C 10 km+ - 120° 120° 7 kt METAR ESNQ 151720Z AUTO 12007KT 9999 NCD 18/11 Q1015
18:50
V
19 °C 10 km+ - 120° 120° 7 kt METAR ESNQ 151650Z AUTO 12007KT 090V150 9999 FEW038/// 19/11 Q1015
18:20
V
19 °C 10 km+ - 120° 120° 6 kt METAR ESNQ 151620Z AUTO 12006KT 100V160 9999 SCT038/// 19/11 Q1015
17:50
V
20 °C 10 km+ 3.900 ft 130° 130° 7 kt METAR ESNQ 151550Z AUTO 13007KT 9999 BKN039/// 20/11 Q1015
17:20
V
19 °C 10 km+ - 130° 130° 6 kt METAR ESNQ 151520Z AUTO 13006KT 9999 SCT040/// 19/10 Q1015
16:50
V
20 °C 10 km+ 3.900 ft 130° 130° 5 kt METAR ESNQ 151450Z AUTO 13005KT 100V180 9999 BKN039/// 20/10 Q1015
16:20
V
19 °C 10 km+ - 140° 140° 7 kt METAR ESNQ 151420Z AUTO 14007KT 9999 NCD 19/10 Q1015
15:50
V
19 °C 10 km+ - 150° 150° 7 kt METAR ESNQ 151350Z AUTO 15007KT 110V170 9999 ///////// 19/10 Q1015
15:20
V
0 °C 10 km+ - 160° 160° 6 kt METAR ESNQ 151320Z AUTO 16006KT 090V200 9999 R03///// R21/P2000N // ///////// ///// Q1015
14:50
V
19 °C 10 km+ - 140° 140° 7 kt METAR ESNQ 151250Z AUTO 14007KT 110V180 9999 NCD 19/10 Q1015
14:20
V
19 °C 10 km+ - 160° 160° 8 kt METAR ESNQ 151220Z AUTO 16008KT 120V200 9999 NCD 19/11 Q1015
13:50
V
19 °C 10 km+ - 150° 150° 9 kt METAR ESNQ 151150Z AUTO 15009KT 110V180 9999 NCD 19/11 Q1015
13:20
V
19 °C 10 km+ - 120° 120° 7 kt METAR ESNQ 151120Z AUTO 12007KT 9999 NCD 19/11 Q1015
12:50
V
20 °C 10 km+ - 150° 150° 7 kt METAR ESNQ 151050Z AUTO 15007KT 110V180 9999 NCD 20/11 Q1015
12:20
V
20 °C 10 km+ - 130° 130° 6 kt METAR ESNQ 151020Z AUTO 13006KT 090V180 9999 NCD 20/11 Q1015
11:50
V
20 °C 10 km+ - 110° 110° 6 kt METAR ESNQ 150950Z AUTO 11006KT 070V170 9999 NCD 20/10 Q1015
11:20
V
20 °C 10 km+ - 130° 130° 7 kt METAR ESNQ 150920Z AUTO 13007KT 100V170 9999 NCD 20/10 Q1015
10:50
V
19 °C 10 km+ - 120° 120° 6 kt METAR ESNQ 150850Z AUTO 12006KT 080V160 9999 NCD 19/10 Q1015
10:20
V
19 °C 10 km+ - 130° 130° 6 kt METAR ESNQ 150820Z AUTO 13006KT 090V180 9999 NCD 19/09 Q1015
09:50
V
19 °C 10 km+ - 120° 120° 6 kt METAR ESNQ 150750Z AUTO 12006KT 080V150 9999 NCD 19/10 Q1015
09:20
V
19 °C 10 km+ - 120° 120° 5 kt METAR ESNQ 150720Z AUTO 12005KT 080V230 9999 NCD 19/11 Q1015
08:50
V
18 °C 10 km+ - 140° 140° 5 kt METAR ESNQ 150650Z AUTO 14005KT 090V170 9999 NCD 18/10 Q1015
08:20
V
18 °C 10 km+ - 150° 150° 6 kt METAR ESNQ 150620Z AUTO 15006KT 9999 NCD 18/11 Q1015
07:50
V
18 °C 10 km+ - 150° 150° 4 kt METAR ESNQ 150550Z AUTO 15004KT 060V180 9999 NCD 18/12 Q1015
07:20
V
16 °C 10 km+ - 110° 110° 4 kt METAR ESNQ 150520Z AUTO 11004KT 9999 NCD 16/12 Q1015
06:50
V
16 °C 10 km+ - Var Var 2 kt METAR ESNQ 150450Z AUTO VRB02KT 9999 NCD 16/12 Q1016
06:20
V
15 °C 10 km+ - 190° 190° 4 kt METAR ESNQ 150420Z AUTO 19004KT 9999 NCD 15/11 Q1016
05:50
V
15 °C 10 km+ - 190° 190° 4 kt METAR ESNQ 150350Z AUTO 19004KT 9999 NCD 15/11 Q1016
05:20
V
14 °C 10 km+ - 200° 200° 6 kt METAR ESNQ 150320Z AUTO 20006KT 9999 NCD 14/11 Q1016
04:50
V
14 °C 10 km+ - 200° 200° 5 kt METAR ESNQ 150250Z AUTO 20005KT 9999 NCD 14/11 Q1016
04:20
V
13 °C 10 km+ - 200° 200° 3 kt METAR ESNQ 150220Z AUTO 20003KT 170V230 9999 NCD 13/11 Q1015
03:50
V
13 °C 10 km+ - Var Var 2 kt METAR ESNQ 150150Z AUTO VRB02KT 9999 NCD 13/11 Q1015
03:20
V
12 °C 10 km+ - 200° 200° 3 kt METAR ESNQ 150120Z AUTO 20003KT 9999 NCD 12/10 Q1015
02:50
V
13 °C 10 km+ - Var Var 1 kt METAR ESNQ 150050Z AUTO VRB01KT 9999 NCD 13/10 Q1015
02:20
V
13 °C 10 km+ - 200° 200° 5 kt METAR ESNQ 150020Z AUTO 20005KT 9999 NCD 13/10 Q1015
01:50
V
13 °C 10 km+ - 200° 200° 4 kt METAR ESNQ 142350Z AUTO 20004KT 9999 NCD 13/10 Q1015
01:20
V
13 °C 10 km+ - 200° 200° 6 kt METAR ESNQ 142320Z AUTO 20006KT 9999 NCD 13/11 Q1015
00:50
V
13 °C 10 km+ - 240° 240° 4 kt METAR ESNQ 142250Z AUTO 24004KT 9999 NCD 13/11 Q1015
00:20
V
16 °C 10 km+ - 180° 180° 6 kt METAR ESNQ 142220Z AUTO 18006KT 9999 NCD 16/11 Q1015

14. Juli 2024

Uhrzeit Code Wetter Temp. Sichtweite Wolkendecke Wind METAR/SPECI
23:50
V
16 °C 10 km+ - 180° 180° 7 kt METAR ESNQ 142150Z AUTO 18007KT 9999 NCD 16/11 Q1015
23:20
V
17 °C 10 km+ - 180° 180° 7 kt METAR ESNQ 142120Z AUTO 18007KT 9999 NCD 17/11 Q1015
22:50
V
18 °C 10 km+ - 180° 180° 6 kt METAR ESNQ 142050Z AUTO 18006KT 9999 NCD 18/11 Q1015
22:20
V
19 °C 10 km+ - 180° 180° 6 kt METAR ESNQ 142020Z AUTO 18006KT 9999 NCD 19/11 Q1015
21:50
V
20 °C 10 km+ - 170° 170° 5 kt METAR ESNQ 141950Z AUTO 17005KT 9999 NCD 20/12 Q1014
21:20
V
21 °C 10 km+ - 180° 180° 6 kt METAR ESNQ 141920Z AUTO 18006KT 9999 NCD 21/11 Q1014
20:50
V
22 °C 10 km+ - 180° 180° 7 kt METAR ESNQ 141850Z AUTO 18007KT 9999 NCD 22/11 Q1014
20:20
V
23 °C 10 km+ - 180° 180° 6 kt METAR ESNQ 141820Z AUTO 18006KT 9999 NCD 23/11 Q1014
19:50
V
23 °C 10 km+ - 180° 180° 6 kt METAR ESNQ 141750Z AUTO 18006KT 9999 NCD 23/10 Q1014
19:20
V
23 °C 10 km+ - 210° 210° 6 kt METAR ESNQ 141720Z AUTO 21006KT 9999 NCD 23/10 Q1014
18:50
V
24 °C 10 km+ - 180° 180° 6 kt METAR ESNQ 141650Z AUTO 18006KT 140V210 9999 NCD 24/10 Q1014
18:20
V
24 °C 10 km+ - 200° 200° 6 kt METAR ESNQ 141620Z 20006KT CAVOK 24/10 Q1014
17:50
V
24 °C 10 km+ - 210° 210° 7 kt METAR ESNQ 141550Z 21007KT CAVOK 24/11 Q1014
17:20
V
24 °C 10 km+ - 190° 190° 8 kt METAR ESNQ 141520Z 19008KT 150V210 CAVOK 24/10 Q1014
16:50
V
24 °C 10 km+ - 170° 170° 6 kt METAR ESNQ 141450Z 17006KT 140V220 CAVOK 24/11 Q1014
16:20
V
24 °C 10 km+ - 190° 190° 7 kt METAR ESNQ 141420Z 19007KT 160V220 CAVOK 24/10 Q1014
15:50
V
24 °C 10 km+ - 170° 170° 6 kt METAR ESNQ 141350Z AUTO 17006KT 120V230 9999 NCD 24/10 Q1014
15:20
V
24 °C 10 km+ - 200° 200° 6 kt METAR ESNQ 141320Z AUTO 20006KT 150V230 9999 NCD 24/10 Q1014
14:50
V
24 °C 10 km+ - 210° 210° 6 kt METAR ESNQ 141250Z AUTO 21006KT 170V250 9999 NCD 24/10 Q1014
14:20
V
23 °C 10 km+ - 190° 190° 6 kt METAR ESNQ 141220Z 19006KT 150V240 CAVOK 23/10 Q1014
13:50
V
23 °C 10 km+ - 190° 190° 7 kt METAR ESNQ 141150Z 19007KT 140V220 CAVOK 23/10 Q1015
13:20
V
23 °C 10 km+ - 220° 220° 7 kt METAR ESNQ 141120Z 22007KT CAVOK 23/11 Q1015
12:50
V
22 °C 10 km+ - 200° 200° 6 kt METAR ESNQ 141050Z 20006KT 130V270 CAVOK 22/11 Q1015
12:20
V
22 °C 10 km+ - 200° 200° 6 kt METAR ESNQ 141020Z 20006KT 150V240 CAVOK 22/11 Q1015
11:50
V
22 °C 10 km+ - 200° 200° 9 kt METAR ESNQ 140950Z 20009KT CAVOK 22/10 Q1015
11:20
V
21 °C 10 km+ - 200° 200° 9 kt METAR ESNQ 140920Z 20009KT CAVOK 21/12 Q1015
10:50
V
20 °C 10 km+ - 210° 210° 9 kt METAR ESNQ 140850Z 21009KT CAVOK 20/11 Q1015
10:20
V
20 °C 10 km+ - 210° 210° 8 kt METAR ESNQ 140820Z 21008KT 170V240 CAVOK 20/11 Q1016
09:50
V
20 °C 10 km+ - 200° 200° 8 kt METAR ESNQ 140750Z 20008KT 170V230 CAVOK 20/12 Q1016
09:20
V
19 °C 10 km+ - 200° 200° 8 kt METAR ESNQ 140720Z AUTO 20008KT 170V230 9999 NCD 19/11 Q1016
08:50
V
18 °C 10 km+ - 210° 210° 7 kt METAR ESNQ 140650Z AUTO 21007KT 170V240 9999 NCD 18/12 Q1016
08:20
V
18 °C 10 km+ - 180° 180° 8 kt METAR ESNQ 140620Z AUTO 18008KT 160V220 9999 NCD 18/11 Q1016
07:50
V
17 °C 10 km+ - 180° 180° 7 kt METAR ESNQ 140550Z AUTO 18007KT 140V210 9999 NCD 17/10 Q1016
Eine Änderung melden